<?xml version="1.0" encoding="UTF-8" standalone="no" ?>
<gpx xmlns="http://www.topografix.com/GPX/1/1" xmlns:xsi="http://www.w3.org/2001/XMLSchema-instance" xsi:schemaLocation="http://www.topografix.com/GPX/1/1 http://www.topografix.com/GPX/1/1/gpx.xsd" version="1.1" creator="VisuGPX - https://www.visugpx.com">
  <metadata>
    <name>RSPFY-poteau de la Poterie</name>
    <desc><![CDATA[marche nordique dans le bois de Rochefort en partant du poteau de la Poterie en passant par le Fonds de Bullion, le carrefour des Jumelles, le point de vue sur la vallée (161m) et le carrefour Fanny.]]></desc>
  </metadata>
  <trk>
    <name><![CDATA[2022-02-17 09:01]]></name>
    <desc><![CDATA[<p>Heure de départ: 09:01 17 févr. 2022<br/>Heure d'arrivée: 11:30 17 févr. 2022<br/>Distance: 11 km (02:29)<br/>Temps déplacement: 02:01<br/>Vitesse moyenne: 4,4 km/h<br/>Vitesse moyenne mouv.: 5,45 km/h<br/>Vitesse Max.: 8,81 km/h<br/>Altitude minimale: 75 m<br/>Altitude maximale: 158 m<br/>Vitesse de montée: 383,2 m/h<br/>Vitesse de descente: -289,9 m/h<br/>Gain d'altitude: 404 m<br/>Perte d'altitude: -403 m<br/>Temps de montée: 01:03<br/>Temps de descente: 01:23<br/></p><hr align="center" width="480" style="height: 2px; width: 517px"/>]]></desc>
    <trkseg>
      <trkpt lat="48.60671" lon="1.9498">
        <ele>111</ele>
        <time>2022-02-17T08:01:14Z</time>
      </trkpt>
      <trkpt lat="48.6066" lon="1.95005">
        <ele>111</ele>
        <time>2022-02-17T08:02:32Z</time>
      </trkpt>
      <trkpt lat="48.60649" lon="1.95027">
        <ele>111</ele>
        <time>2022-02-17T08:02:50Z</time>
      </trkpt>
      <trkpt lat="48.60638" lon="1.95049">
        <ele>111</ele>
        <time>2022-02-17T08:03:04Z</time>
      </trkpt>
      <trkpt lat="48.6063" lon="1.95076">
        <ele>111</ele>
        <time>2022-02-17T08:03:20Z</time>
      </trkpt>
      <trkpt lat="48.60616" lon="1.95099">
        <ele>111</ele>
        <time>2022-02-17T08:03:32Z</time>
      </trkpt>
      <trkpt lat="48.60606" lon="1.95125">
        <ele>111</ele>
        <time>2022-02-17T08:03:46Z</time>
      </trkpt>
      <trkpt lat="48.60593" lon="1.95145">
        <ele>111</ele>
        <time>2022-02-17T08:04:02Z</time>
      </trkpt>
      <trkpt lat="48.60581" lon="1.95171">
        <ele>111</ele>
        <time>2022-02-17T08:04:18Z</time>
      </trkpt>
      <trkpt lat="48.60582" lon="1.95202">
        <ele>111</ele>
        <time>2022-02-17T08:04:32Z</time>
      </trkpt>
      <trkpt lat="48.60584" lon="1.95231">
        <ele>111</ele>
        <time>2022-02-17T08:04:46Z</time>
      </trkpt>
      <trkpt lat="48.60583" lon="1.95261">
        <ele>110.6</ele>
        <time>2022-02-17T08:05:00Z</time>
      </trkpt>
      <trkpt lat="48.60581" lon="1.95289">
        <ele>110</ele>
        <time>2022-02-17T08:05:16Z</time>
      </trkpt>
      <trkpt lat="48.60586" lon="1.95317">
        <ele>110</ele>
        <time>2022-02-17T08:05:34Z</time>
      </trkpt>
      <trkpt lat="48.60592" lon="1.95345">
        <ele>109.7</ele>
        <time>2022-02-17T08:05:52Z</time>
      </trkpt>
      <trkpt lat="48.60595" lon="1.95374">
        <ele>109.2</ele>
        <time>2022-02-17T08:06:12Z</time>
      </trkpt>
      <trkpt lat="48.60599" lon="1.95401">
        <ele>109</ele>
        <time>2022-02-17T08:06:26Z</time>
      </trkpt>
      <trkpt lat="48.60606" lon="1.95428">
        <ele>109</ele>
        <time>2022-02-17T08:06:42Z</time>
      </trkpt>
      <trkpt lat="48.60609" lon="1.95459">
        <ele>109</ele>
        <time>2022-02-17T08:06:56Z</time>
      </trkpt>
      <trkpt lat="48.60611" lon="1.95489">
        <ele>109</ele>
        <time>2022-02-17T08:07:12Z</time>
      </trkpt>
      <trkpt lat="48.60607" lon="1.95518">
        <ele>109</ele>
        <time>2022-02-17T08:07:26Z</time>
      </trkpt>
      <trkpt lat="48.6061" lon="1.95546">
        <ele>108.3</ele>
        <time>2022-02-17T08:07:42Z</time>
      </trkpt>
      <trkpt lat="48.6062" lon="1.95574">
        <ele>108</ele>
        <time>2022-02-17T08:07:56Z</time>
      </trkpt>
      <trkpt lat="48.60636" lon="1.95597">
        <ele>108</ele>
        <time>2022-02-17T08:08:08Z</time>
      </trkpt>
      <trkpt lat="48.60646" lon="1.95623">
        <ele>108</ele>
        <time>2022-02-17T08:08:20Z</time>
      </trkpt>
      <trkpt lat="48.60661" lon="1.95642">
        <ele>108</ele>
        <time>2022-02-17T08:08:34Z</time>
      </trkpt>
      <trkpt lat="48.60678" lon="1.9566">
        <ele>107.9</ele>
        <time>2022-02-17T08:08:48Z</time>
      </trkpt>
      <trkpt lat="48.60684" lon="1.95687">
        <ele>108</ele>
        <time>2022-02-17T08:09:04Z</time>
      </trkpt>
      <trkpt lat="48.60692" lon="1.95713">
        <ele>108</ele>
        <time>2022-02-17T08:09:20Z</time>
      </trkpt>
      <trkpt lat="48.60699" lon="1.95739">
        <ele>107.8</ele>
        <time>2022-02-17T08:09:34Z</time>
      </trkpt>
      <trkpt lat="48.60695" lon="1.95767">
        <ele>108</ele>
        <time>2022-02-17T08:09:48Z</time>
      </trkpt>
      <trkpt lat="48.60698" lon="1.95798">
        <ele>107.2</ele>
        <time>2022-02-17T08:10:04Z</time>
      </trkpt>
      <trkpt lat="48.60699" lon="1.95826">
        <ele>106.9</ele>
        <time>2022-02-17T08:10:16Z</time>
      </trkpt>
      <trkpt lat="48.60696" lon="1.95854">
        <ele>106.9</ele>
        <time>2022-02-17T08:10:28Z</time>
      </trkpt>
      <trkpt lat="48.60688" lon="1.95879">
        <ele>107</ele>
        <time>2022-02-17T08:10:42Z</time>
      </trkpt>
      <trkpt lat="48.60678" lon="1.95902">
        <ele>107</ele>
        <time>2022-02-17T08:11:00Z</time>
      </trkpt>
      <trkpt lat="48.60674" lon="1.95929">
        <ele>107</ele>
        <time>2022-02-17T08:11:22Z</time>
      </trkpt>
      <trkpt lat="48.60676" lon="1.95958">
        <ele>107</ele>
        <time>2022-02-17T08:11:52Z</time>
      </trkpt>
      <trkpt lat="48.60664" lon="1.95981">
        <ele>107.6</ele>
        <time>2022-02-17T08:12:10Z</time>
      </trkpt>
      <trkpt lat="48.60648" lon="1.95997">
        <ele>108.8</ele>
        <time>2022-02-17T08:12:24Z</time>
      </trkpt>
      <trkpt lat="48.60628" lon="1.96006">
        <ele>109.4</ele>
        <time>2022-02-17T08:12:40Z</time>
      </trkpt>
      <trkpt lat="48.60608" lon="1.96005">
        <ele>109.5</ele>
        <time>2022-02-17T08:12:56Z</time>
      </trkpt>
      <trkpt lat="48.60592" lon="1.95987">
        <ele>108.8</ele>
        <time>2022-02-17T08:13:12Z</time>
      </trkpt>
      <trkpt lat="48.60574" lon="1.95972">
        <ele>109.1</ele>
        <time>2022-02-17T08:13:24Z</time>
      </trkpt>
      <trkpt lat="48.60558" lon="1.95957">
        <ele>109.7</ele>
        <time>2022-02-17T08:13:36Z</time>
      </trkpt>
      <trkpt lat="48.60541" lon="1.95944">
        <ele>110</ele>
        <time>2022-02-17T08:13:48Z</time>
      </trkpt>
      <trkpt lat="48.60526" lon="1.9593">
        <ele>110.7</ele>
        <time>2022-02-17T08:14:00Z</time>
      </trkpt>
      <trkpt lat="48.6051" lon="1.95913">
        <ele>110.4</ele>
        <time>2022-02-17T08:14:14Z</time>
      </trkpt>
      <trkpt lat="48.60492" lon="1.95899">
        <ele>110.3</ele>
        <time>2022-02-17T08:14:28Z</time>
      </trkpt>
      <trkpt lat="48.60472" lon="1.95887">
        <ele>110.8</ele>
        <time>2022-02-17T08:14:42Z</time>
      </trkpt>
      <trkpt lat="48.60454" lon="1.95876">
        <ele>110.1</ele>
        <time>2022-02-17T08:14:56Z</time>
      </trkpt>
      <trkpt lat="48.60435" lon="1.95872">
        <ele>110.1</ele>
        <time>2022-02-17T08:15:10Z</time>
      </trkpt>
      <trkpt lat="48.60416" lon="1.95867">
        <ele>110.4</ele>
        <time>2022-02-17T08:15:24Z</time>
      </trkpt>
      <trkpt lat="48.60396" lon="1.95864">
        <ele>110.8</ele>
        <time>2022-02-17T08:15:38Z</time>
      </trkpt>
      <trkpt lat="48.60379" lon="1.95859">
        <ele>110.9</ele>
        <time>2022-02-17T08:15:52Z</time>
      </trkpt>
      <trkpt lat="48.60358" lon="1.95861">
        <ele>111.1</ele>
        <time>2022-02-17T08:16:06Z</time>
      </trkpt>
      <trkpt lat="48.6034" lon="1.95856">
        <ele>111.6</ele>
        <time>2022-02-17T08:16:18Z</time>
      </trkpt>
      <trkpt lat="48.60322" lon="1.95847">
        <ele>111.5</ele>
        <time>2022-02-17T08:16:34Z</time>
      </trkpt>
      <trkpt lat="48.60307" lon="1.95831">
        <ele>111</ele>
        <time>2022-02-17T08:16:44Z</time>
      </trkpt>
      <trkpt lat="48.6029" lon="1.95815">
        <ele>111.2</ele>
        <time>2022-02-17T08:16:58Z</time>
      </trkpt>
      <trkpt lat="48.60273" lon="1.95803">
        <ele>111.2</ele>
        <time>2022-02-17T08:17:14Z</time>
      </trkpt>
      <trkpt lat="48.60262" lon="1.95825">
        <ele>112.3</ele>
        <time>2022-02-17T08:18:50Z</time>
      </trkpt>
      <trkpt lat="48.6025" lon="1.95847">
        <ele>113</ele>
        <time>2022-02-17T08:19:02Z</time>
      </trkpt>
      <trkpt lat="48.60246" lon="1.95874">
        <ele>113.6</ele>
        <time>2022-02-17T08:19:16Z</time>
      </trkpt>
      <trkpt lat="48.60242" lon="1.95902">
        <ele>115.2</ele>
        <time>2022-02-17T08:19:30Z</time>
      </trkpt>
      <trkpt lat="48.60237" lon="1.9593">
        <ele>118</ele>
        <time>2022-02-17T08:19:46Z</time>
      </trkpt>
      <trkpt lat="48.60232" lon="1.95959">
        <ele>121.6</ele>
        <time>2022-02-17T08:20:00Z</time>
      </trkpt>
      <trkpt lat="48.60227" lon="1.95986">
        <ele>125.6</ele>
        <time>2022-02-17T08:20:16Z</time>
      </trkpt>
      <trkpt lat="48.6023" lon="1.96013">
        <ele>129.1</ele>
        <time>2022-02-17T08:20:32Z</time>
      </trkpt>
      <trkpt lat="48.60226" lon="1.9604">
        <ele>132.9</ele>
        <time>2022-02-17T08:20:46Z</time>
      </trkpt>
      <trkpt lat="48.60221" lon="1.96067">
        <ele>136.1</ele>
        <time>2022-02-17T08:21:02Z</time>
      </trkpt>
      <trkpt lat="48.60219" lon="1.96095">
        <ele>139</ele>
        <time>2022-02-17T08:21:20Z</time>
      </trkpt>
      <trkpt lat="48.60231" lon="1.96118">
        <ele>140.9</ele>
        <time>2022-02-17T08:21:36Z</time>
      </trkpt>
      <trkpt lat="48.6024" lon="1.96144">
        <ele>141.8</ele>
        <time>2022-02-17T08:21:50Z</time>
      </trkpt>
      <trkpt lat="48.60247" lon="1.96171">
        <ele>142.1</ele>
        <time>2022-02-17T08:22:04Z</time>
      </trkpt>
      <trkpt lat="48.60258" lon="1.96196">
        <ele>143</ele>
        <time>2022-02-17T08:22:18Z</time>
      </trkpt>
      <trkpt lat="48.60263" lon="1.96225">
        <ele>142.4</ele>
        <time>2022-02-17T08:22:32Z</time>
      </trkpt>
      <trkpt lat="48.60275" lon="1.96247">
        <ele>142.1</ele>
        <time>2022-02-17T08:22:44Z</time>
      </trkpt>
      <trkpt lat="48.60288" lon="1.96268">
        <ele>141.7</ele>
        <time>2022-02-17T08:23:04Z</time>
      </trkpt>
      <trkpt lat="48.60302" lon="1.96288">
        <ele>141.2</ele>
        <time>2022-02-17T08:23:18Z</time>
      </trkpt>
      <trkpt lat="48.60309" lon="1.96317">
        <ele>140.4</ele>
        <time>2022-02-17T08:23:34Z</time>
      </trkpt>
      <trkpt lat="48.60319" lon="1.96341">
        <ele>141.4</ele>
        <time>2022-02-17T08:23:48Z</time>
      </trkpt>
      <trkpt lat="48.60312" lon="1.96371">
        <ele>140.7</ele>
        <time>2022-02-17T08:24:04Z</time>
      </trkpt>
      <trkpt lat="48.60298" lon="1.96388">
        <ele>139.4</ele>
        <time>2022-02-17T08:25:56Z</time>
      </trkpt>
      <trkpt lat="48.60289" lon="1.96414">
        <ele>139.2</ele>
        <time>2022-02-17T08:26:08Z</time>
      </trkpt>
      <trkpt lat="48.60284" lon="1.96441">
        <ele>138.7</ele>
        <time>2022-02-17T08:26:22Z</time>
      </trkpt>
      <trkpt lat="48.60292" lon="1.9647">
        <ele>139.5</ele>
        <time>2022-02-17T08:26:38Z</time>
      </trkpt>
      <trkpt lat="48.60297" lon="1.96498">
        <ele>139.8</ele>
        <time>2022-02-17T08:26:54Z</time>
      </trkpt>
      <trkpt lat="48.60299" lon="1.96527">
        <ele>139.4</ele>
        <time>2022-02-17T08:27:08Z</time>
      </trkpt>
      <trkpt lat="48.60299" lon="1.96554">
        <ele>139.1</ele>
        <time>2022-02-17T08:27:22Z</time>
      </trkpt>
      <trkpt lat="48.603" lon="1.96585">
        <ele>138.2</ele>
        <time>2022-02-17T08:27:36Z</time>
      </trkpt>
      <trkpt lat="48.60301" lon="1.96615">
        <ele>138.3</ele>
        <time>2022-02-17T08:27:50Z</time>
      </trkpt>
      <trkpt lat="48.60306" lon="1.96644">
        <ele>137.9</ele>
        <time>2022-02-17T08:28:02Z</time>
      </trkpt>
      <trkpt lat="48.60316" lon="1.96673">
        <ele>138.4</ele>
        <time>2022-02-17T08:28:14Z</time>
      </trkpt>
      <trkpt lat="48.60324" lon="1.96699">
        <ele>138.6</ele>
        <time>2022-02-17T08:28:26Z</time>
      </trkpt>
      <trkpt lat="48.60337" lon="1.9672">
        <ele>140.3</ele>
        <time>2022-02-17T08:28:42Z</time>
      </trkpt>
      <trkpt lat="48.60355" lon="1.96725">
        <ele>141.5</ele>
        <time>2022-02-17T08:28:58Z</time>
      </trkpt>
      <trkpt lat="48.60369" lon="1.96744">
        <ele>142.3</ele>
        <time>2022-02-17T08:29:12Z</time>
      </trkpt>
      <trkpt lat="48.60381" lon="1.96769">
        <ele>142</ele>
        <time>2022-02-17T08:29:32Z</time>
      </trkpt>
      <trkpt lat="48.60397" lon="1.96782">
        <ele>142.2</ele>
        <time>2022-02-17T08:30:02Z</time>
      </trkpt>
      <trkpt lat="48.60411" lon="1.96802">
        <ele>142.1</ele>
        <time>2022-02-17T08:32:13Z</time>
      </trkpt>
      <trkpt lat="48.60428" lon="1.96818">
        <ele>141.6</ele>
        <time>2022-02-17T08:32:27Z</time>
      </trkpt>
      <trkpt lat="48.60445" lon="1.9683">
        <ele>141</ele>
        <time>2022-02-17T08:32:37Z</time>
      </trkpt>
      <trkpt lat="48.6046" lon="1.96847">
        <ele>139.1</ele>
        <time>2022-02-17T08:32:51Z</time>
      </trkpt>
      <trkpt lat="48.60474" lon="1.96864">
        <ele>137.7</ele>
        <time>2022-02-17T08:33:01Z</time>
      </trkpt>
      <trkpt lat="48.60493" lon="1.96875">
        <ele>135</ele>
        <time>2022-02-17T08:33:13Z</time>
      </trkpt>
      <trkpt lat="48.60512" lon="1.9689">
        <ele>131.9</ele>
        <time>2022-02-17T08:33:25Z</time>
      </trkpt>
      <trkpt lat="48.60526" lon="1.96912">
        <ele>129.3</ele>
        <time>2022-02-17T08:33:43Z</time>
      </trkpt>
      <trkpt lat="48.60544" lon="1.96927">
        <ele>126.6</ele>
        <time>2022-02-17T08:33:57Z</time>
      </trkpt>
      <trkpt lat="48.60561" lon="1.96943">
        <ele>124.2</ele>
        <time>2022-02-17T08:34:09Z</time>
      </trkpt>
      <trkpt lat="48.60581" lon="1.96956">
        <ele>120.9</ele>
        <time>2022-02-17T08:34:21Z</time>
      </trkpt>
      <trkpt lat="48.60599" lon="1.96971">
        <ele>118.9</ele>
        <time>2022-02-17T08:34:35Z</time>
      </trkpt>
      <trkpt lat="48.60614" lon="1.96992">
        <ele>117.2</ele>
        <time>2022-02-17T08:34:47Z</time>
      </trkpt>
      <trkpt lat="48.6063" lon="1.97011">
        <ele>116.1</ele>
        <time>2022-02-17T08:34:59Z</time>
      </trkpt>
      <trkpt lat="48.60644" lon="1.97029">
        <ele>114.8</ele>
        <time>2022-02-17T08:35:11Z</time>
      </trkpt>
      <trkpt lat="48.60661" lon="1.97042">
        <ele>113.8</ele>
        <time>2022-02-17T08:35:27Z</time>
      </trkpt>
      <trkpt lat="48.60674" lon="1.97062">
        <ele>112.7</ele>
        <time>2022-02-17T08:35:49Z</time>
      </trkpt>
      <trkpt lat="48.60689" lon="1.97077">
        <ele>111.6</ele>
        <time>2022-02-17T08:36:03Z</time>
      </trkpt>
      <trkpt lat="48.60703" lon="1.97097">
        <ele>110.2</ele>
        <time>2022-02-17T08:36:15Z</time>
      </trkpt>
      <trkpt lat="48.60707" lon="1.97127">
        <ele>109.5</ele>
        <time>2022-02-17T08:36:47Z</time>
      </trkpt>
      <trkpt lat="48.60708" lon="1.97155">
        <ele>108.9</ele>
        <time>2022-02-17T08:37:03Z</time>
      </trkpt>
      <trkpt lat="48.60703" lon="1.97184">
        <ele>108.7</ele>
        <time>2022-02-17T08:37:17Z</time>
      </trkpt>
      <trkpt lat="48.60697" lon="1.97211">
        <ele>108.9</ele>
        <time>2022-02-17T08:37:31Z</time>
      </trkpt>
      <trkpt lat="48.60701" lon="1.9724">
        <ele>108.7</ele>
        <time>2022-02-17T08:37:47Z</time>
      </trkpt>
      <trkpt lat="48.6071" lon="1.97266">
        <ele>107.9</ele>
        <time>2022-02-17T08:37:59Z</time>
      </trkpt>
      <trkpt lat="48.60716" lon="1.97295">
        <ele>107.2</ele>
        <time>2022-02-17T08:38:11Z</time>
      </trkpt>
      <trkpt lat="48.6072" lon="1.97321">
        <ele>107.1</ele>
        <time>2022-02-17T08:38:23Z</time>
      </trkpt>
      <trkpt lat="48.60723" lon="1.9735">
        <ele>106.4</ele>
        <time>2022-02-17T08:38:37Z</time>
      </trkpt>
      <trkpt lat="48.6073" lon="1.97377">
        <ele>105.7</ele>
        <time>2022-02-17T08:38:49Z</time>
      </trkpt>
      <trkpt lat="48.60737" lon="1.97405">
        <ele>105.5</ele>
        <time>2022-02-17T08:39:01Z</time>
      </trkpt>
      <trkpt lat="48.6075" lon="1.9743">
        <ele>105</ele>
        <time>2022-02-17T08:39:13Z</time>
      </trkpt>
      <trkpt lat="48.60738" lon="1.97454">
        <ele>105.4</ele>
        <time>2022-02-17T08:40:03Z</time>
      </trkpt>
      <trkpt lat="48.60719" lon="1.97464">
        <ele>106</ele>
        <time>2022-02-17T08:40:17Z</time>
      </trkpt>
      <trkpt lat="48.60701" lon="1.97469">
        <ele>106</ele>
        <time>2022-02-17T08:40:27Z</time>
      </trkpt>
      <trkpt lat="48.60682" lon="1.97466">
        <ele>106.4</ele>
        <time>2022-02-17T08:40:41Z</time>
      </trkpt>
      <trkpt lat="48.60664" lon="1.97457">
        <ele>107.2</ele>
        <time>2022-02-17T08:40:53Z</time>
      </trkpt>
      <trkpt lat="48.60646" lon="1.97438">
        <ele>108.5</ele>
        <time>2022-02-17T08:41:07Z</time>
      </trkpt>
      <trkpt lat="48.6063" lon="1.97418">
        <ele>109.3</ele>
        <time>2022-02-17T08:41:19Z</time>
      </trkpt>
      <trkpt lat="48.60616" lon="1.974">
        <ele>109.8</ele>
        <time>2022-02-17T08:41:31Z</time>
      </trkpt>
      <trkpt lat="48.60602" lon="1.97377">
        <ele>110.6</ele>
        <time>2022-02-17T08:41:47Z</time>
      </trkpt>
      <trkpt lat="48.60588" lon="1.97357">
        <ele>111.1</ele>
        <time>2022-02-17T08:42:01Z</time>
      </trkpt>
      <trkpt lat="48.60571" lon="1.97338">
        <ele>111.9</ele>
        <time>2022-02-17T08:42:15Z</time>
      </trkpt>
      <trkpt lat="48.60555" lon="1.97321">
        <ele>112</ele>
        <time>2022-02-17T08:42:27Z</time>
      </trkpt>
      <trkpt lat="48.60541" lon="1.97302">
        <ele>112.6</ele>
        <time>2022-02-17T08:42:41Z</time>
      </trkpt>
      <trkpt lat="48.60524" lon="1.97291">
        <ele>113.1</ele>
        <time>2022-02-17T08:42:55Z</time>
      </trkpt>
      <trkpt lat="48.60506" lon="1.97277">
        <ele>113.8</ele>
        <time>2022-02-17T08:43:09Z</time>
      </trkpt>
      <trkpt lat="48.60487" lon="1.97274">
        <ele>114.1</ele>
        <time>2022-02-17T08:43:21Z</time>
      </trkpt>
      <trkpt lat="48.60467" lon="1.97261">
        <ele>114.8</ele>
        <time>2022-02-17T08:43:35Z</time>
      </trkpt>
      <trkpt lat="48.60448" lon="1.97247">
        <ele>116</ele>
        <time>2022-02-17T08:43:49Z</time>
      </trkpt>
      <trkpt lat="48.60431" lon="1.97237">
        <ele>116.5</ele>
        <time>2022-02-17T08:43:59Z</time>
      </trkpt>
      <trkpt lat="48.60417" lon="1.97218">
        <ele>117.3</ele>
        <time>2022-02-17T08:44:11Z</time>
      </trkpt>
      <trkpt lat="48.60401" lon="1.97202">
        <ele>118</ele>
        <time>2022-02-17T08:44:25Z</time>
      </trkpt>
      <trkpt lat="48.60387" lon="1.97185">
        <ele>118.7</ele>
        <time>2022-02-17T08:44:39Z</time>
      </trkpt>
      <trkpt lat="48.60373" lon="1.97163">
        <ele>119.1</ele>
        <time>2022-02-17T08:45:01Z</time>
      </trkpt>
      <trkpt lat="48.60361" lon="1.97143">
        <ele>118.8</ele>
        <time>2022-02-17T08:45:15Z</time>
      </trkpt>
      <trkpt lat="48.60344" lon="1.97129">
        <ele>119.3</ele>
        <time>2022-02-17T08:45:35Z</time>
      </trkpt>
      <trkpt lat="48.6033" lon="1.97112">
        <ele>119.1</ele>
        <time>2022-02-17T08:45:53Z</time>
      </trkpt>
      <trkpt lat="48.60316" lon="1.9709">
        <ele>119.9</ele>
        <time>2022-02-17T08:46:09Z</time>
      </trkpt>
      <trkpt lat="48.60308" lon="1.97066">
        <ele>120.1</ele>
        <time>2022-02-17T08:46:23Z</time>
      </trkpt>
      <trkpt lat="48.60301" lon="1.9704">
        <ele>120.2</ele>
        <time>2022-02-17T08:46:37Z</time>
      </trkpt>
      <trkpt lat="48.60289" lon="1.97019">
        <ele>120.7</ele>
        <time>2022-02-17T08:46:51Z</time>
      </trkpt>
      <trkpt lat="48.60283" lon="1.97047">
        <ele>121.4</ele>
        <time>2022-02-17T08:50:47Z</time>
      </trkpt>
      <trkpt lat="48.60269" lon="1.97071">
        <ele>122.6</ele>
        <time>2022-02-17T08:51:05Z</time>
      </trkpt>
      <trkpt lat="48.60269" lon="1.971">
        <ele>123.2</ele>
        <time>2022-02-17T08:51:19Z</time>
      </trkpt>
      <trkpt lat="48.60278" lon="1.97126">
        <ele>123</ele>
        <time>2022-02-17T08:51:31Z</time>
      </trkpt>
      <trkpt lat="48.60281" lon="1.97153">
        <ele>122.8</ele>
        <time>2022-02-17T08:51:45Z</time>
      </trkpt>
      <trkpt lat="48.60293" lon="1.97177">
        <ele>121.9</ele>
        <time>2022-02-17T08:51:57Z</time>
      </trkpt>
      <trkpt lat="48.60305" lon="1.97197">
        <ele>121.1</ele>
        <time>2022-02-17T08:52:09Z</time>
      </trkpt>
      <trkpt lat="48.60317" lon="1.97219">
        <ele>120.2</ele>
        <time>2022-02-17T08:52:35Z</time>
      </trkpt>
      <trkpt lat="48.60327" lon="1.97243">
        <ele>119.5</ele>
        <time>2022-02-17T08:52:47Z</time>
      </trkpt>
      <trkpt lat="48.60337" lon="1.97267">
        <ele>118.7</ele>
        <time>2022-02-17T08:52:59Z</time>
      </trkpt>
      <trkpt lat="48.60354" lon="1.97286">
        <ele>117.5</ele>
        <time>2022-02-17T08:53:11Z</time>
      </trkpt>
      <trkpt lat="48.60368" lon="1.97307">
        <ele>116.5</ele>
        <time>2022-02-17T08:53:25Z</time>
      </trkpt>
      <trkpt lat="48.60383" lon="1.97327">
        <ele>115.4</ele>
        <time>2022-02-17T08:53:37Z</time>
      </trkpt>
      <trkpt lat="48.604" lon="1.9734">
        <ele>114.6</ele>
        <time>2022-02-17T08:53:49Z</time>
      </trkpt>
      <trkpt lat="48.60417" lon="1.97356">
        <ele>114</ele>
        <time>2022-02-17T08:54:01Z</time>
      </trkpt>
      <trkpt lat="48.60431" lon="1.97374">
        <ele>114</ele>
        <time>2022-02-17T08:54:13Z</time>
      </trkpt>
      <trkpt lat="48.60449" lon="1.97394">
        <ele>113.8</ele>
        <time>2022-02-17T08:54:25Z</time>
      </trkpt>
      <trkpt lat="48.60463" lon="1.97417">
        <ele>113.3</ele>
        <time>2022-02-17T08:54:37Z</time>
      </trkpt>
      <trkpt lat="48.60478" lon="1.97435">
        <ele>112.8</ele>
        <time>2022-02-17T08:54:47Z</time>
      </trkpt>
      <trkpt lat="48.60497" lon="1.97443">
        <ele>112.1</ele>
        <time>2022-02-17T08:55:01Z</time>
      </trkpt>
      <trkpt lat="48.60516" lon="1.97452">
        <ele>111.4</ele>
        <time>2022-02-17T08:55:15Z</time>
      </trkpt>
      <trkpt lat="48.60535" lon="1.97466">
        <ele>110.8</ele>
        <time>2022-02-17T08:55:29Z</time>
      </trkpt>
      <trkpt lat="48.60549" lon="1.97487">
        <ele>110.1</ele>
        <time>2022-02-17T08:55:41Z</time>
      </trkpt>
      <trkpt lat="48.60564" lon="1.97502">
        <ele>109.9</ele>
        <time>2022-02-17T08:55:55Z</time>
      </trkpt>
      <trkpt lat="48.60579" lon="1.97522">
        <ele>109.2</ele>
        <time>2022-02-17T08:56:09Z</time>
      </trkpt>
      <trkpt lat="48.60581" lon="1.97552">
        <ele>109</ele>
        <time>2022-02-17T08:56:27Z</time>
      </trkpt>
      <trkpt lat="48.60577" lon="1.97581">
        <ele>108.3</ele>
        <time>2022-02-17T08:56:45Z</time>
      </trkpt>
      <trkpt lat="48.60582" lon="1.97608">
        <ele>108</ele>
        <time>2022-02-17T08:56:57Z</time>
      </trkpt>
      <trkpt lat="48.60579" lon="1.97637">
        <ele>107.3</ele>
        <time>2022-02-17T08:57:11Z</time>
      </trkpt>
      <trkpt lat="48.60563" lon="1.97656">
        <ele>108.5</ele>
        <time>2022-02-17T08:57:25Z</time>
      </trkpt>
      <trkpt lat="48.60545" lon="1.97661">
        <ele>109.4</ele>
        <time>2022-02-17T08:57:45Z</time>
      </trkpt>
      <trkpt lat="48.6054" lon="1.97688">
        <ele>110</ele>
        <time>2022-02-17T08:57:59Z</time>
      </trkpt>
      <trkpt lat="48.60537" lon="1.97715">
        <ele>110.3</ele>
        <time>2022-02-17T08:58:37Z</time>
      </trkpt>
      <trkpt lat="48.60553" lon="1.9773">
        <ele>109.2</ele>
        <time>2022-02-17T08:59:33Z</time>
      </trkpt>
      <trkpt lat="48.60571" lon="1.97746">
        <ele>107.9</ele>
        <time>2022-02-17T08:59:45Z</time>
      </trkpt>
      <trkpt lat="48.60586" lon="1.97764">
        <ele>107.4</ele>
        <time>2022-02-17T08:59:59Z</time>
      </trkpt>
      <trkpt lat="48.60603" lon="1.97776">
        <ele>106.6</ele>
        <time>2022-02-17T09:00:13Z</time>
      </trkpt>
      <trkpt lat="48.60618" lon="1.97795">
        <ele>105.9</ele>
        <time>2022-02-17T09:00:35Z</time>
      </trkpt>
      <trkpt lat="48.60633" lon="1.97813">
        <ele>106.1</ele>
        <time>2022-02-17T09:00:51Z</time>
      </trkpt>
      <trkpt lat="48.60648" lon="1.9783">
        <ele>105.7</ele>
        <time>2022-02-17T09:01:05Z</time>
      </trkpt>
      <trkpt lat="48.60664" lon="1.97844">
        <ele>105.5</ele>
        <time>2022-02-17T09:01:17Z</time>
      </trkpt>
      <trkpt lat="48.60679" lon="1.9786">
        <ele>105.5</ele>
        <time>2022-02-17T09:01:31Z</time>
      </trkpt>
      <trkpt lat="48.60695" lon="1.97876">
        <ele>105</ele>
        <time>2022-02-17T09:01:43Z</time>
      </trkpt>
      <trkpt lat="48.60713" lon="1.97891">
        <ele>105</ele>
        <time>2022-02-17T09:01:57Z</time>
      </trkpt>
      <trkpt lat="48.60729" lon="1.97904">
        <ele>104.8</ele>
        <time>2022-02-17T09:02:09Z</time>
      </trkpt>
      <trkpt lat="48.60744" lon="1.97921">
        <ele>104.3</ele>
        <time>2022-02-17T09:02:27Z</time>
      </trkpt>
      <trkpt lat="48.6076" lon="1.97936">
        <ele>104.4</ele>
        <time>2022-02-17T09:02:51Z</time>
      </trkpt>
      <trkpt lat="48.60776" lon="1.97952">
        <ele>104.1</ele>
        <time>2022-02-17T09:03:03Z</time>
      </trkpt>
      <trkpt lat="48.60796" lon="1.97962">
        <ele>103.4</ele>
        <time>2022-02-17T09:03:27Z</time>
      </trkpt>
      <trkpt lat="48.60804" lon="1.97988">
        <ele>103.1</ele>
        <time>2022-02-17T09:03:49Z</time>
      </trkpt>
      <trkpt lat="48.60801" lon="1.98017">
        <ele>103.2</ele>
        <time>2022-02-17T09:04:07Z</time>
      </trkpt>
      <trkpt lat="48.60793" lon="1.98045">
        <ele>103.5</ele>
        <time>2022-02-17T09:04:21Z</time>
      </trkpt>
      <trkpt lat="48.60787" lon="1.98073">
        <ele>103</ele>
        <time>2022-02-17T09:04:35Z</time>
      </trkpt>
      <trkpt lat="48.60779" lon="1.98101">
        <ele>102.9</ele>
        <time>2022-02-17T09:04:49Z</time>
      </trkpt>
      <trkpt lat="48.60769" lon="1.98126">
        <ele>103</ele>
        <time>2022-02-17T09:05:03Z</time>
      </trkpt>
      <trkpt lat="48.60764" lon="1.98153">
        <ele>102.7</ele>
        <time>2022-02-17T09:05:15Z</time>
      </trkpt>
      <trkpt lat="48.60751" lon="1.98172">
        <ele>103</ele>
        <time>2022-02-17T09:05:29Z</time>
      </trkpt>
      <trkpt lat="48.6074" lon="1.98195">
        <ele>103.7</ele>
        <time>2022-02-17T09:05:41Z</time>
      </trkpt>
      <trkpt lat="48.60727" lon="1.98215">
        <ele>103.9</ele>
        <time>2022-02-17T09:05:53Z</time>
      </trkpt>
      <trkpt lat="48.60717" lon="1.98238">
        <ele>103.6</ele>
        <time>2022-02-17T09:06:07Z</time>
      </trkpt>
      <trkpt lat="48.60703" lon="1.98258">
        <ele>103.4</ele>
        <time>2022-02-17T09:06:21Z</time>
      </trkpt>
      <trkpt lat="48.607" lon="1.98285">
        <ele>102.6</ele>
        <time>2022-02-17T09:09:47Z</time>
      </trkpt>
      <trkpt lat="48.60679" lon="1.98294">
        <ele>102.4</ele>
        <time>2022-02-17T09:10:07Z</time>
      </trkpt>
      <trkpt lat="48.60658" lon="1.98305">
        <ele>102</ele>
        <time>2022-02-17T09:10:21Z</time>
      </trkpt>
      <trkpt lat="48.60641" lon="1.98317">
        <ele>102</ele>
        <time>2022-02-17T09:10:33Z</time>
      </trkpt>
      <trkpt lat="48.60623" lon="1.98323">
        <ele>102.2</ele>
        <time>2022-02-17T09:10:47Z</time>
      </trkpt>
      <trkpt lat="48.60605" lon="1.98335">
        <ele>102.2</ele>
        <time>2022-02-17T09:11:01Z</time>
      </trkpt>
      <trkpt lat="48.60584" lon="1.98339">
        <ele>103</ele>
        <time>2022-02-17T09:11:13Z</time>
      </trkpt>
      <trkpt lat="48.60564" lon="1.98346">
        <ele>102.7</ele>
        <time>2022-02-17T09:11:25Z</time>
      </trkpt>
      <trkpt lat="48.60546" lon="1.98357">
        <ele>102.1</ele>
        <time>2022-02-17T09:11:41Z</time>
      </trkpt>
      <trkpt lat="48.60527" lon="1.98361">
        <ele>102</ele>
        <time>2022-02-17T09:11:57Z</time>
      </trkpt>
      <trkpt lat="48.60507" lon="1.98361">
        <ele>101.2</ele>
        <time>2022-02-17T09:12:13Z</time>
      </trkpt>
      <trkpt lat="48.60489" lon="1.98365">
        <ele>100.5</ele>
        <time>2022-02-17T09:12:25Z</time>
      </trkpt>
      <trkpt lat="48.6047" lon="1.98361">
        <ele>100</ele>
        <time>2022-02-17T09:12:43Z</time>
      </trkpt>
      <trkpt lat="48.60451" lon="1.98361">
        <ele>100</ele>
        <time>2022-02-17T09:13:03Z</time>
      </trkpt>
      <trkpt lat="48.60432" lon="1.98371">
        <ele>100.4</ele>
        <time>2022-02-17T09:13:19Z</time>
      </trkpt>
      <trkpt lat="48.60416" lon="1.98382">
        <ele>101</ele>
        <time>2022-02-17T09:13:31Z</time>
      </trkpt>
      <trkpt lat="48.60397" lon="1.98393">
        <ele>101.6</ele>
        <time>2022-02-17T09:13:43Z</time>
      </trkpt>
      <trkpt lat="48.60379" lon="1.98404">
        <ele>102.7</ele>
        <time>2022-02-17T09:13:55Z</time>
      </trkpt>
      <trkpt lat="48.60359" lon="1.98415">
        <ele>104.1</ele>
        <time>2022-02-17T09:14:11Z</time>
      </trkpt>
      <trkpt lat="48.60343" lon="1.9843">
        <ele>105.3</ele>
        <time>2022-02-17T09:14:23Z</time>
      </trkpt>
      <trkpt lat="48.60327" lon="1.98444">
        <ele>106.2</ele>
        <time>2022-02-17T09:14:35Z</time>
      </trkpt>
      <trkpt lat="48.60311" lon="1.9846">
        <ele>106.2</ele>
        <time>2022-02-17T09:14:47Z</time>
      </trkpt>
      <trkpt lat="48.603" lon="1.98484">
        <ele>105.6</ele>
        <time>2022-02-17T09:14:59Z</time>
      </trkpt>
      <trkpt lat="48.60285" lon="1.98506">
        <ele>104.8</ele>
        <time>2022-02-17T09:15:17Z</time>
      </trkpt>
      <trkpt lat="48.60271" lon="1.98523">
        <ele>104.4</ele>
        <time>2022-02-17T09:15:31Z</time>
      </trkpt>
      <trkpt lat="48.60258" lon="1.98544">
        <ele>104.3</ele>
        <time>2022-02-17T09:15:43Z</time>
      </trkpt>
      <trkpt lat="48.60243" lon="1.98563">
        <ele>104.3</ele>
        <time>2022-02-17T09:15:57Z</time>
      </trkpt>
      <trkpt lat="48.60227" lon="1.98583">
        <ele>104.8</ele>
        <time>2022-02-17T09:16:09Z</time>
      </trkpt>
      <trkpt lat="48.60211" lon="1.98599">
        <ele>105.6</ele>
        <time>2022-02-17T09:16:23Z</time>
      </trkpt>
      <trkpt lat="48.60195" lon="1.98612">
        <ele>107</ele>
        <time>2022-02-17T09:16:37Z</time>
      </trkpt>
      <trkpt lat="48.6018" lon="1.98628">
        <ele>107.5</ele>
        <time>2022-02-17T09:16:49Z</time>
      </trkpt>
      <trkpt lat="48.60163" lon="1.98645">
        <ele>108.1</ele>
        <time>2022-02-17T09:17:01Z</time>
      </trkpt>
      <trkpt lat="48.60148" lon="1.98663">
        <ele>108.7</ele>
        <time>2022-02-17T09:17:17Z</time>
      </trkpt>
      <trkpt lat="48.60132" lon="1.98677">
        <ele>108.9</ele>
        <time>2022-02-17T09:17:29Z</time>
      </trkpt>
      <trkpt lat="48.60114" lon="1.98694">
        <ele>108.9</ele>
        <time>2022-02-17T09:17:45Z</time>
      </trkpt>
      <trkpt lat="48.60097" lon="1.98709">
        <ele>108.5</ele>
        <time>2022-02-17T09:17:59Z</time>
      </trkpt>
      <trkpt lat="48.60079" lon="1.98721">
        <ele>107.9</ele>
        <time>2022-02-17T09:18:15Z</time>
      </trkpt>
      <trkpt lat="48.60061" lon="1.98728">
        <ele>107.2</ele>
        <time>2022-02-17T09:18:25Z</time>
      </trkpt>
      <trkpt lat="48.60044" lon="1.98738">
        <ele>106.8</ele>
        <time>2022-02-17T09:18:37Z</time>
      </trkpt>
      <trkpt lat="48.60024" lon="1.98748">
        <ele>105.9</ele>
        <time>2022-02-17T09:18:55Z</time>
      </trkpt>
      <trkpt lat="48.60005" lon="1.9875">
        <ele>105.2</ele>
        <time>2022-02-17T09:19:05Z</time>
      </trkpt>
      <trkpt lat="48.59986" lon="1.98752">
        <ele>105.5</ele>
        <time>2022-02-17T09:19:19Z</time>
      </trkpt>
      <trkpt lat="48.59966" lon="1.98757">
        <ele>105.8</ele>
        <time>2022-02-17T09:19:31Z</time>
      </trkpt>
      <trkpt lat="48.59947" lon="1.98765">
        <ele>106</ele>
        <time>2022-02-17T09:19:45Z</time>
      </trkpt>
      <trkpt lat="48.59927" lon="1.98771">
        <ele>106.8</ele>
        <time>2022-02-17T09:19:59Z</time>
      </trkpt>
      <trkpt lat="48.59907" lon="1.98775">
        <ele>108.2</ele>
        <time>2022-02-17T09:20:11Z</time>
      </trkpt>
      <trkpt lat="48.59886" lon="1.98781">
        <ele>110.2</ele>
        <time>2022-02-17T09:20:25Z</time>
      </trkpt>
      <trkpt lat="48.59866" lon="1.98791">
        <ele>111.6</ele>
        <time>2022-02-17T09:20:51Z</time>
      </trkpt>
      <trkpt lat="48.59848" lon="1.9879">
        <ele>112.9</ele>
        <time>2022-02-17T09:21:03Z</time>
      </trkpt>
      <trkpt lat="48.59826" lon="1.98788">
        <ele>114</ele>
        <time>2022-02-17T09:21:13Z</time>
      </trkpt>
      <trkpt lat="48.59806" lon="1.9879">
        <ele>114.1</ele>
        <time>2022-02-17T09:21:23Z</time>
      </trkpt>
      <trkpt lat="48.59786" lon="1.9879">
        <ele>114.8</ele>
        <time>2022-02-17T09:21:35Z</time>
      </trkpt>
      <trkpt lat="48.59768" lon="1.9879">
        <ele>115.3</ele>
        <time>2022-02-17T09:21:47Z</time>
      </trkpt>
      <trkpt lat="48.59747" lon="1.98788">
        <ele>115.7</ele>
        <time>2022-02-17T09:22:01Z</time>
      </trkpt>
      <trkpt lat="48.59727" lon="1.98789">
        <ele>116.4</ele>
        <time>2022-02-17T09:22:15Z</time>
      </trkpt>
      <trkpt lat="48.59706" lon="1.9879">
        <ele>117.4</ele>
        <time>2022-02-17T09:22:29Z</time>
      </trkpt>
      <trkpt lat="48.59687" lon="1.98791">
        <ele>118.4</ele>
        <time>2022-02-17T09:22:41Z</time>
      </trkpt>
      <trkpt lat="48.59666" lon="1.98792">
        <ele>119.5</ele>
        <time>2022-02-17T09:22:55Z</time>
      </trkpt>
      <trkpt lat="48.59647" lon="1.98791">
        <ele>120.9</ele>
        <time>2022-02-17T09:23:07Z</time>
      </trkpt>
      <trkpt lat="48.59627" lon="1.98789">
        <ele>122.3</ele>
        <time>2022-02-17T09:23:23Z</time>
      </trkpt>
      <trkpt lat="48.59606" lon="1.98792">
        <ele>123.6</ele>
        <time>2022-02-17T09:23:37Z</time>
      </trkpt>
      <trkpt lat="48.59586" lon="1.98796">
        <ele>124.2</ele>
        <time>2022-02-17T09:23:51Z</time>
      </trkpt>
      <trkpt lat="48.59566" lon="1.98798">
        <ele>124</ele>
        <time>2022-02-17T09:24:07Z</time>
      </trkpt>
      <trkpt lat="48.59572" lon="1.98771">
        <ele>123</ele>
        <time>2022-02-17T09:26:59Z</time>
      </trkpt>
      <trkpt lat="48.59588" lon="1.98758">
        <ele>122.9</ele>
        <time>2022-02-17T09:27:11Z</time>
      </trkpt>
      <trkpt lat="48.59602" lon="1.98739">
        <ele>122.7</ele>
        <time>2022-02-17T09:27:25Z</time>
      </trkpt>
      <trkpt lat="48.59615" lon="1.98719">
        <ele>123.2</ele>
        <time>2022-02-17T09:27:39Z</time>
      </trkpt>
      <trkpt lat="48.5963" lon="1.98699">
        <ele>124.1</ele>
        <time>2022-02-17T09:27:51Z</time>
      </trkpt>
      <trkpt lat="48.59647" lon="1.98691">
        <ele>124.3</ele>
        <time>2022-02-17T09:28:03Z</time>
      </trkpt>
      <trkpt lat="48.59665" lon="1.98696">
        <ele>123.9</ele>
        <time>2022-02-17T09:28:17Z</time>
      </trkpt>
      <trkpt lat="48.59684" lon="1.98685">
        <ele>125.6</ele>
        <time>2022-02-17T09:28:35Z</time>
      </trkpt>
      <trkpt lat="48.5969" lon="1.98658">
        <ele>129.3</ele>
        <time>2022-02-17T09:28:57Z</time>
      </trkpt>
      <trkpt lat="48.59699" lon="1.98633">
        <ele>134</ele>
        <time>2022-02-17T09:29:11Z</time>
      </trkpt>
      <trkpt lat="48.59701" lon="1.98606">
        <ele>138.2</ele>
        <time>2022-02-17T09:29:33Z</time>
      </trkpt>
      <trkpt lat="48.59704" lon="1.98578">
        <ele>142.2</ele>
        <time>2022-02-17T09:29:57Z</time>
      </trkpt>
      <trkpt lat="48.59721" lon="1.98561">
        <ele>144.6</ele>
        <time>2022-02-17T09:32:17Z</time>
      </trkpt>
      <trkpt lat="48.59738" lon="1.98549">
        <ele>145.1</ele>
        <time>2022-02-17T09:32:29Z</time>
      </trkpt>
      <trkpt lat="48.59756" lon="1.9854">
        <ele>144.5</ele>
        <time>2022-02-17T09:32:41Z</time>
      </trkpt>
      <trkpt lat="48.59776" lon="1.9853">
        <ele>143.2</ele>
        <time>2022-02-17T09:32:53Z</time>
      </trkpt>
      <trkpt lat="48.59796" lon="1.98525">
        <ele>139.6</ele>
        <time>2022-02-17T09:33:05Z</time>
      </trkpt>
      <trkpt lat="48.59813" lon="1.98515">
        <ele>135.2</ele>
        <time>2022-02-17T09:33:15Z</time>
      </trkpt>
      <trkpt lat="48.59835" lon="1.98516">
        <ele>130.2</ele>
        <time>2022-02-17T09:33:25Z</time>
      </trkpt>
      <trkpt lat="48.59851" lon="1.98502">
        <ele>126.8</ele>
        <time>2022-02-17T09:33:39Z</time>
      </trkpt>
      <trkpt lat="48.59861" lon="1.98479">
        <ele>124.2</ele>
        <time>2022-02-17T09:33:55Z</time>
      </trkpt>
      <trkpt lat="48.59847" lon="1.98455">
        <ele>125.1</ele>
        <time>2022-02-17T09:34:05Z</time>
      </trkpt>
      <trkpt lat="48.59844" lon="1.98426">
        <ele>124.2</ele>
        <time>2022-02-17T09:34:23Z</time>
      </trkpt>
      <trkpt lat="48.59851" lon="1.98401">
        <ele>123.4</ele>
        <time>2022-02-17T09:34:35Z</time>
      </trkpt>
      <trkpt lat="48.59864" lon="1.98378">
        <ele>123.2</ele>
        <time>2022-02-17T09:34:47Z</time>
      </trkpt>
      <trkpt lat="48.59874" lon="1.98353">
        <ele>123.5</ele>
        <time>2022-02-17T09:34:59Z</time>
      </trkpt>
      <trkpt lat="48.5989" lon="1.98335">
        <ele>123.8</ele>
        <time>2022-02-17T09:35:15Z</time>
      </trkpt>
      <trkpt lat="48.59896" lon="1.98308">
        <ele>125.2</ele>
        <time>2022-02-17T09:35:41Z</time>
      </trkpt>
      <trkpt lat="48.59883" lon="1.98289">
        <ele>126.3</ele>
        <time>2022-02-17T09:35:59Z</time>
      </trkpt>
      <trkpt lat="48.59865" lon="1.98277">
        <ele>127</ele>
        <time>2022-02-17T09:36:11Z</time>
      </trkpt>
      <trkpt lat="48.59847" lon="1.98268">
        <ele>128.9</ele>
        <time>2022-02-17T09:36:25Z</time>
      </trkpt>
      <trkpt lat="48.59829" lon="1.98258">
        <ele>131.3</ele>
        <time>2022-02-17T09:36:37Z</time>
      </trkpt>
      <trkpt lat="48.5981" lon="1.98251">
        <ele>134.2</ele>
        <time>2022-02-17T09:36:51Z</time>
      </trkpt>
      <trkpt lat="48.59792" lon="1.98246">
        <ele>136.7</ele>
        <time>2022-02-17T09:37:05Z</time>
      </trkpt>
      <trkpt lat="48.59776" lon="1.9823">
        <ele>139.6</ele>
        <time>2022-02-17T09:37:21Z</time>
      </trkpt>
      <trkpt lat="48.59759" lon="1.98219">
        <ele>141.5</ele>
        <time>2022-02-17T09:37:35Z</time>
      </trkpt>
      <trkpt lat="48.59741" lon="1.98209">
        <ele>142.9</ele>
        <time>2022-02-17T09:37:49Z</time>
      </trkpt>
      <trkpt lat="48.59723" lon="1.98201">
        <ele>144.4</ele>
        <time>2022-02-17T09:38:05Z</time>
      </trkpt>
      <trkpt lat="48.59704" lon="1.98194">
        <ele>146.3</ele>
        <time>2022-02-17T09:38:25Z</time>
      </trkpt>
      <trkpt lat="48.59687" lon="1.98178">
        <ele>148</ele>
        <time>2022-02-17T09:38:37Z</time>
      </trkpt>
      <trkpt lat="48.59673" lon="1.98157">
        <ele>149.6</ele>
        <time>2022-02-17T09:38:51Z</time>
      </trkpt>
      <trkpt lat="48.59659" lon="1.98138">
        <ele>150.3</ele>
        <time>2022-02-17T09:39:03Z</time>
      </trkpt>
      <trkpt lat="48.59643" lon="1.9812">
        <ele>150.2</ele>
        <time>2022-02-17T09:39:15Z</time>
      </trkpt>
      <trkpt lat="48.59627" lon="1.98098">
        <ele>150.4</ele>
        <time>2022-02-17T09:39:29Z</time>
      </trkpt>
      <trkpt lat="48.59612" lon="1.9808">
        <ele>150.8</ele>
        <time>2022-02-17T09:39:43Z</time>
      </trkpt>
      <trkpt lat="48.59597" lon="1.98061">
        <ele>152.2</ele>
        <time>2022-02-17T09:40:01Z</time>
      </trkpt>
      <trkpt lat="48.59581" lon="1.98045">
        <ele>154.2</ele>
        <time>2022-02-17T09:40:11Z</time>
      </trkpt>
      <trkpt lat="48.59562" lon="1.98036">
        <ele>156.1</ele>
        <time>2022-02-17T09:40:23Z</time>
      </trkpt>
      <trkpt lat="48.59545" lon="1.98024">
        <ele>157.1</ele>
        <time>2022-02-17T09:40:37Z</time>
      </trkpt>
      <trkpt lat="48.59529" lon="1.98009">
        <ele>157.6</ele>
        <time>2022-02-17T09:41:01Z</time>
      </trkpt>
      <trkpt lat="48.59514" lon="1.9799">
        <ele>158.2</ele>
        <time>2022-02-17T09:44:21Z</time>
      </trkpt>
      <trkpt lat="48.59496" lon="1.97994">
        <ele>158.3</ele>
        <time>2022-02-17T09:44:39Z</time>
      </trkpt>
      <trkpt lat="48.59479" lon="1.98009">
        <ele>158.8</ele>
        <time>2022-02-17T09:44:53Z</time>
      </trkpt>
      <trkpt lat="48.59464" lon="1.98026">
        <ele>159</ele>
        <time>2022-02-17T09:45:05Z</time>
      </trkpt>
      <trkpt lat="48.59451" lon="1.98047">
        <ele>158.3</ele>
        <time>2022-02-17T09:45:17Z</time>
      </trkpt>
      <trkpt lat="48.59437" lon="1.98069">
        <ele>157.4</ele>
        <time>2022-02-17T09:45:32Z</time>
      </trkpt>
      <trkpt lat="48.59421" lon="1.98084">
        <ele>156.1</ele>
        <time>2022-02-17T09:45:46Z</time>
      </trkpt>
      <trkpt lat="48.59402" lon="1.98077">
        <ele>156.3</ele>
        <time>2022-02-17T09:46:00Z</time>
      </trkpt>
      <trkpt lat="48.59385" lon="1.98063">
        <ele>156.5</ele>
        <time>2022-02-17T09:46:12Z</time>
      </trkpt>
      <trkpt lat="48.59369" lon="1.98044">
        <ele>157.1</ele>
        <time>2022-02-17T09:46:28Z</time>
      </trkpt>
      <trkpt lat="48.59359" lon="1.98019">
        <ele>157.8</ele>
        <time>2022-02-17T09:46:42Z</time>
      </trkpt>
      <trkpt lat="48.59367" lon="1.97993">
        <ele>158.2</ele>
        <time>2022-02-17T09:47:00Z</time>
      </trkpt>
      <trkpt lat="48.59374" lon="1.97966">
        <ele>158.3</ele>
        <time>2022-02-17T09:47:16Z</time>
      </trkpt>
      <trkpt lat="48.59372" lon="1.97935">
        <ele>157.6</ele>
        <time>2022-02-17T09:47:28Z</time>
      </trkpt>
      <trkpt lat="48.59367" lon="1.97904">
        <ele>157</ele>
        <time>2022-02-17T09:47:40Z</time>
      </trkpt>
      <trkpt lat="48.59361" lon="1.97873">
        <ele>156.9</ele>
        <time>2022-02-17T09:47:52Z</time>
      </trkpt>
      <trkpt lat="48.59354" lon="1.97843">
        <ele>156.3</ele>
        <time>2022-02-17T09:48:06Z</time>
      </trkpt>
      <trkpt lat="48.59344" lon="1.97815">
        <ele>156.2</ele>
        <time>2022-02-17T09:48:20Z</time>
      </trkpt>
      <trkpt lat="48.59338" lon="1.97787">
        <ele>156.2</ele>
        <time>2022-02-17T09:48:32Z</time>
      </trkpt>
      <trkpt lat="48.59345" lon="1.97761">
        <ele>156.4</ele>
        <time>2022-02-17T09:48:48Z</time>
      </trkpt>
      <trkpt lat="48.59351" lon="1.97731">
        <ele>156.6</ele>
        <time>2022-02-17T09:49:02Z</time>
      </trkpt>
      <trkpt lat="48.59366" lon="1.97716">
        <ele>156.8</ele>
        <time>2022-02-17T09:49:18Z</time>
      </trkpt>
      <trkpt lat="48.59387" lon="1.97721">
        <ele>157</ele>
        <time>2022-02-17T09:49:36Z</time>
      </trkpt>
      <trkpt lat="48.59405" lon="1.97731">
        <ele>156.7</ele>
        <time>2022-02-17T09:49:48Z</time>
      </trkpt>
      <trkpt lat="48.59423" lon="1.97743">
        <ele>156.4</ele>
        <time>2022-02-17T09:50:02Z</time>
      </trkpt>
      <trkpt lat="48.59433" lon="1.97718">
        <ele>154.5</ele>
        <time>2022-02-17T09:50:30Z</time>
      </trkpt>
      <trkpt lat="48.59429" lon="1.9769">
        <ele>152.7</ele>
        <time>2022-02-17T09:50:44Z</time>
      </trkpt>
      <trkpt lat="48.5943" lon="1.97662">
        <ele>150.2</ele>
        <time>2022-02-17T09:50:56Z</time>
      </trkpt>
      <trkpt lat="48.59427" lon="1.97631">
        <ele>148.4</ele>
        <time>2022-02-17T09:51:12Z</time>
      </trkpt>
      <trkpt lat="48.59433" lon="1.97602">
        <ele>146.5</ele>
        <time>2022-02-17T09:51:26Z</time>
      </trkpt>
      <trkpt lat="48.59443" lon="1.97575">
        <ele>144.8</ele>
        <time>2022-02-17T09:51:40Z</time>
      </trkpt>
      <trkpt lat="48.59456" lon="1.97552">
        <ele>143</ele>
        <time>2022-02-17T09:51:56Z</time>
      </trkpt>
      <trkpt lat="48.59472" lon="1.97541">
        <ele>141.5</ele>
        <time>2022-02-17T09:52:08Z</time>
      </trkpt>
      <trkpt lat="48.59477" lon="1.97514">
        <ele>140.7</ele>
        <time>2022-02-17T09:52:20Z</time>
      </trkpt>
      <trkpt lat="48.5947" lon="1.97485">
        <ele>140.4</ele>
        <time>2022-02-17T09:52:32Z</time>
      </trkpt>
      <trkpt lat="48.59476" lon="1.97457">
        <ele>138.9</ele>
        <time>2022-02-17T09:52:46Z</time>
      </trkpt>
      <trkpt lat="48.5948" lon="1.97429">
        <ele>138</ele>
        <time>2022-02-17T09:53:36Z</time>
      </trkpt>
      <trkpt lat="48.59474" lon="1.97401">
        <ele>138</ele>
        <time>2022-02-17T09:53:48Z</time>
      </trkpt>
      <trkpt lat="48.5947" lon="1.97372">
        <ele>138.9</ele>
        <time>2022-02-17T09:54:04Z</time>
      </trkpt>
      <trkpt lat="48.59464" lon="1.97343">
        <ele>141.2</ele>
        <time>2022-02-17T09:54:20Z</time>
      </trkpt>
      <trkpt lat="48.59461" lon="1.97313">
        <ele>145.1</ele>
        <time>2022-02-17T09:54:36Z</time>
      </trkpt>
      <trkpt lat="48.59454" lon="1.97288">
        <ele>148.4</ele>
        <time>2022-02-17T09:54:56Z</time>
      </trkpt>
      <trkpt lat="48.59438" lon="1.97268">
        <ele>151</ele>
        <time>2022-02-17T09:55:12Z</time>
      </trkpt>
      <trkpt lat="48.59427" lon="1.97245">
        <ele>153.2</ele>
        <time>2022-02-17T09:55:26Z</time>
      </trkpt>
      <trkpt lat="48.59427" lon="1.97217">
        <ele>155.6</ele>
        <time>2022-02-17T09:55:42Z</time>
      </trkpt>
      <trkpt lat="48.59436" lon="1.97192">
        <ele>157.4</ele>
        <time>2022-02-17T09:55:56Z</time>
      </trkpt>
      <trkpt lat="48.59441" lon="1.97166">
        <ele>157.9</ele>
        <time>2022-02-17T09:56:10Z</time>
      </trkpt>
      <trkpt lat="48.59433" lon="1.97137">
        <ele>158.6</ele>
        <time>2022-02-17T09:56:24Z</time>
      </trkpt>
      <trkpt lat="48.59436" lon="1.9711">
        <ele>158</ele>
        <time>2022-02-17T09:56:36Z</time>
      </trkpt>
      <trkpt lat="48.59434" lon="1.97082">
        <ele>158</ele>
        <time>2022-02-17T09:56:50Z</time>
      </trkpt>
      <trkpt lat="48.59427" lon="1.97055">
        <ele>157.6</ele>
        <time>2022-02-17T09:57:04Z</time>
      </trkpt>
      <trkpt lat="48.59419" lon="1.97027">
        <ele>156.9</ele>
        <time>2022-02-17T09:57:20Z</time>
      </trkpt>
      <trkpt lat="48.59422" lon="1.96999">
        <ele>156.6</ele>
        <time>2022-02-17T09:57:34Z</time>
      </trkpt>
      <trkpt lat="48.59425" lon="1.9697">
        <ele>156.4</ele>
        <time>2022-02-17T09:57:48Z</time>
      </trkpt>
      <trkpt lat="48.59413" lon="1.96949">
        <ele>156.7</ele>
        <time>2022-02-17T09:58:02Z</time>
      </trkpt>
      <trkpt lat="48.59406" lon="1.96921">
        <ele>155.7</ele>
        <time>2022-02-17T09:58:16Z</time>
      </trkpt>
      <trkpt lat="48.59403" lon="1.96894">
        <ele>155.5</ele>
        <time>2022-02-17T09:58:30Z</time>
      </trkpt>
      <trkpt lat="48.59401" lon="1.96864">
        <ele>154.9</ele>
        <time>2022-02-17T10:00:50Z</time>
      </trkpt>
      <trkpt lat="48.5941" lon="1.96838">
        <ele>154.1</ele>
        <time>2022-02-17T10:01:04Z</time>
      </trkpt>
      <trkpt lat="48.59413" lon="1.9681">
        <ele>152.2</ele>
        <time>2022-02-17T10:01:16Z</time>
      </trkpt>
      <trkpt lat="48.59431" lon="1.96797">
        <ele>150.7</ele>
        <time>2022-02-17T10:01:34Z</time>
      </trkpt>
      <trkpt lat="48.59424" lon="1.96768">
        <ele>148.4</ele>
        <time>2022-02-17T10:01:52Z</time>
      </trkpt>
      <trkpt lat="48.59415" lon="1.96741">
        <ele>146.3</ele>
        <time>2022-02-17T10:02:06Z</time>
      </trkpt>
      <trkpt lat="48.59416" lon="1.96713">
        <ele>144.6</ele>
        <time>2022-02-17T10:02:20Z</time>
      </trkpt>
      <trkpt lat="48.59408" lon="1.96689">
        <ele>143.1</ele>
        <time>2022-02-17T10:02:34Z</time>
      </trkpt>
      <trkpt lat="48.59413" lon="1.96661">
        <ele>142.6</ele>
        <time>2022-02-17T10:02:48Z</time>
      </trkpt>
      <trkpt lat="48.59425" lon="1.9664">
        <ele>142.3</ele>
        <time>2022-02-17T10:03:02Z</time>
      </trkpt>
      <trkpt lat="48.59432" lon="1.96612">
        <ele>142.1</ele>
        <time>2022-02-17T10:03:16Z</time>
      </trkpt>
      <trkpt lat="48.59442" lon="1.96586">
        <ele>142</ele>
        <time>2022-02-17T10:03:30Z</time>
      </trkpt>
      <trkpt lat="48.59455" lon="1.96563">
        <ele>142</ele>
        <time>2022-02-17T10:03:44Z</time>
      </trkpt>
      <trkpt lat="48.59467" lon="1.9654">
        <ele>142.5</ele>
        <time>2022-02-17T10:03:58Z</time>
      </trkpt>
      <trkpt lat="48.5948" lon="1.96516">
        <ele>144.2</ele>
        <time>2022-02-17T10:04:12Z</time>
      </trkpt>
      <trkpt lat="48.59491" lon="1.96493">
        <ele>146.4</ele>
        <time>2022-02-17T10:04:30Z</time>
      </trkpt>
      <trkpt lat="48.595" lon="1.96466">
        <ele>147.8</ele>
        <time>2022-02-17T10:04:52Z</time>
      </trkpt>
      <trkpt lat="48.59511" lon="1.96443">
        <ele>148.9</ele>
        <time>2022-02-17T10:05:08Z</time>
      </trkpt>
      <trkpt lat="48.59522" lon="1.96421">
        <ele>150.2</ele>
        <time>2022-02-17T10:05:24Z</time>
      </trkpt>
      <trkpt lat="48.59535" lon="1.96401">
        <ele>152</ele>
        <time>2022-02-17T10:05:38Z</time>
      </trkpt>
      <trkpt lat="48.59545" lon="1.96378">
        <ele>153.3</ele>
        <time>2022-02-17T10:05:52Z</time>
      </trkpt>
      <trkpt lat="48.59555" lon="1.96354">
        <ele>154.4</ele>
        <time>2022-02-17T10:06:06Z</time>
      </trkpt>
      <trkpt lat="48.59568" lon="1.96328">
        <ele>154.4</ele>
        <time>2022-02-17T10:06:20Z</time>
      </trkpt>
      <trkpt lat="48.59579" lon="1.96303">
        <ele>154.2</ele>
        <time>2022-02-17T10:06:34Z</time>
      </trkpt>
      <trkpt lat="48.5959" lon="1.96278">
        <ele>152.7</ele>
        <time>2022-02-17T10:06:48Z</time>
      </trkpt>
      <trkpt lat="48.59604" lon="1.96255">
        <ele>151</ele>
        <time>2022-02-17T10:07:02Z</time>
      </trkpt>
      <trkpt lat="48.59614" lon="1.96229">
        <ele>148.1</ele>
        <time>2022-02-17T10:07:20Z</time>
      </trkpt>
      <trkpt lat="48.59625" lon="1.96205">
        <ele>145</ele>
        <time>2022-02-17T10:07:34Z</time>
      </trkpt>
      <trkpt lat="48.59636" lon="1.96183">
        <ele>142.3</ele>
        <time>2022-02-17T10:07:48Z</time>
      </trkpt>
      <trkpt lat="48.59652" lon="1.96169">
        <ele>140.7</ele>
        <time>2022-02-17T10:08:04Z</time>
      </trkpt>
      <trkpt lat="48.59659" lon="1.96144">
        <ele>138.3</ele>
        <time>2022-02-17T10:08:16Z</time>
      </trkpt>
      <trkpt lat="48.59669" lon="1.9612">
        <ele>136.7</ele>
        <time>2022-02-17T10:08:28Z</time>
      </trkpt>
      <trkpt lat="48.59681" lon="1.96094">
        <ele>134.7</ele>
        <time>2022-02-17T10:08:42Z</time>
      </trkpt>
      <trkpt lat="48.59691" lon="1.96067">
        <ele>132.3</ele>
        <time>2022-02-17T10:08:56Z</time>
      </trkpt>
      <trkpt lat="48.59706" lon="1.96043">
        <ele>130.3</ele>
        <time>2022-02-17T10:09:10Z</time>
      </trkpt>
      <trkpt lat="48.59718" lon="1.96018">
        <ele>129.5</ele>
        <time>2022-02-17T10:09:22Z</time>
      </trkpt>
      <trkpt lat="48.59727" lon="1.95992">
        <ele>128.9</ele>
        <time>2022-02-17T10:09:34Z</time>
      </trkpt>
      <trkpt lat="48.59737" lon="1.95968">
        <ele>128.4</ele>
        <time>2022-02-17T10:09:46Z</time>
      </trkpt>
      <trkpt lat="48.59752" lon="1.95948">
        <ele>128.1</ele>
        <time>2022-02-17T10:10:00Z</time>
      </trkpt>
      <trkpt lat="48.59764" lon="1.95923">
        <ele>126.9</ele>
        <time>2022-02-17T10:10:14Z</time>
      </trkpt>
      <trkpt lat="48.59774" lon="1.95899">
        <ele>126.2</ele>
        <time>2022-02-17T10:10:30Z</time>
      </trkpt>
      <trkpt lat="48.59784" lon="1.95875">
        <ele>125.6</ele>
        <time>2022-02-17T10:10:44Z</time>
      </trkpt>
      <trkpt lat="48.59798" lon="1.95851">
        <ele>124.6</ele>
        <time>2022-02-17T10:10:56Z</time>
      </trkpt>
      <trkpt lat="48.59806" lon="1.95821">
        <ele>123.6</ele>
        <time>2022-02-17T10:11:08Z</time>
      </trkpt>
      <trkpt lat="48.59816" lon="1.95798">
        <ele>123.3</ele>
        <time>2022-02-17T10:11:20Z</time>
      </trkpt>
      <trkpt lat="48.59828" lon="1.95777">
        <ele>123</ele>
        <time>2022-02-17T10:11:34Z</time>
      </trkpt>
      <trkpt lat="48.59836" lon="1.9575">
        <ele>123</ele>
        <time>2022-02-17T10:11:48Z</time>
      </trkpt>
      <trkpt lat="48.5985" lon="1.95731">
        <ele>122.7</ele>
        <time>2022-02-17T10:12:00Z</time>
      </trkpt>
      <trkpt lat="48.59862" lon="1.95705">
        <ele>122.4</ele>
        <time>2022-02-17T10:12:12Z</time>
      </trkpt>
      <trkpt lat="48.5987" lon="1.9568">
        <ele>122</ele>
        <time>2022-02-17T10:12:24Z</time>
      </trkpt>
      <trkpt lat="48.59884" lon="1.9566">
        <ele>122.5</ele>
        <time>2022-02-17T10:12:38Z</time>
      </trkpt>
      <trkpt lat="48.59897" lon="1.95637">
        <ele>122.2</ele>
        <time>2022-02-17T10:12:52Z</time>
      </trkpt>
      <trkpt lat="48.59907" lon="1.95613">
        <ele>121.7</ele>
        <time>2022-02-17T10:13:02Z</time>
      </trkpt>
      <trkpt lat="48.59919" lon="1.95591">
        <ele>121.3</ele>
        <time>2022-02-17T10:13:14Z</time>
      </trkpt>
      <trkpt lat="48.5993" lon="1.95566">
        <ele>120.7</ele>
        <time>2022-02-17T10:13:28Z</time>
      </trkpt>
      <trkpt lat="48.59942" lon="1.95544">
        <ele>120.5</ele>
        <time>2022-02-17T10:13:42Z</time>
      </trkpt>
      <trkpt lat="48.59951" lon="1.95518">
        <ele>119.2</ele>
        <time>2022-02-17T10:13:56Z</time>
      </trkpt>
      <trkpt lat="48.59965" lon="1.95496">
        <ele>117.4</ele>
        <time>2022-02-17T10:14:10Z</time>
      </trkpt>
      <trkpt lat="48.59976" lon="1.9547">
        <ele>115.8</ele>
        <time>2022-02-17T10:14:24Z</time>
      </trkpt>
      <trkpt lat="48.59985" lon="1.95445">
        <ele>114.6</ele>
        <time>2022-02-17T10:14:34Z</time>
      </trkpt>
      <trkpt lat="48.59994" lon="1.95419">
        <ele>114.2</ele>
        <time>2022-02-17T10:14:48Z</time>
      </trkpt>
      <trkpt lat="48.60005" lon="1.95395">
        <ele>114</ele>
        <time>2022-02-17T10:15:00Z</time>
      </trkpt>
      <trkpt lat="48.60018" lon="1.95374">
        <ele>113.6</ele>
        <time>2022-02-17T10:15:14Z</time>
      </trkpt>
      <trkpt lat="48.60029" lon="1.95349">
        <ele>113</ele>
        <time>2022-02-17T10:15:28Z</time>
      </trkpt>
      <trkpt lat="48.60041" lon="1.95328">
        <ele>113</ele>
        <time>2022-02-17T10:15:42Z</time>
      </trkpt>
      <trkpt lat="48.60056" lon="1.95308">
        <ele>113</ele>
        <time>2022-02-17T10:15:58Z</time>
      </trkpt>
      <trkpt lat="48.6007" lon="1.95289">
        <ele>112.8</ele>
        <time>2022-02-17T10:16:10Z</time>
      </trkpt>
      <trkpt lat="48.60089" lon="1.95295">
        <ele>112.4</ele>
        <time>2022-02-17T10:18:08Z</time>
      </trkpt>
      <trkpt lat="48.60107" lon="1.9531">
        <ele>112</ele>
        <time>2022-02-17T10:18:22Z</time>
      </trkpt>
      <trkpt lat="48.60123" lon="1.95324">
        <ele>112</ele>
        <time>2022-02-17T10:18:34Z</time>
      </trkpt>
      <trkpt lat="48.60137" lon="1.95342">
        <ele>112.3</ele>
        <time>2022-02-17T10:18:46Z</time>
      </trkpt>
      <trkpt lat="48.60151" lon="1.95362">
        <ele>113</ele>
        <time>2022-02-17T10:19:00Z</time>
      </trkpt>
      <trkpt lat="48.60166" lon="1.95378">
        <ele>113</ele>
        <time>2022-02-17T10:19:12Z</time>
      </trkpt>
      <trkpt lat="48.6018" lon="1.95395">
        <ele>112.7</ele>
        <time>2022-02-17T10:19:24Z</time>
      </trkpt>
      <trkpt lat="48.60195" lon="1.9541">
        <ele>112.7</ele>
        <time>2022-02-17T10:19:36Z</time>
      </trkpt>
      <trkpt lat="48.60209" lon="1.95431">
        <ele>112.5</ele>
        <time>2022-02-17T10:19:50Z</time>
      </trkpt>
      <trkpt lat="48.60224" lon="1.95446">
        <ele>112</ele>
        <time>2022-02-17T10:20:02Z</time>
      </trkpt>
      <trkpt lat="48.60242" lon="1.95462">
        <ele>112</ele>
        <time>2022-02-17T10:20:20Z</time>
      </trkpt>
      <trkpt lat="48.60255" lon="1.95485">
        <ele>111.8</ele>
        <time>2022-02-17T10:20:34Z</time>
      </trkpt>
      <trkpt lat="48.6027" lon="1.95502">
        <ele>111.3</ele>
        <time>2022-02-17T10:20:52Z</time>
      </trkpt>
      <trkpt lat="48.60288" lon="1.95514">
        <ele>111</ele>
        <time>2022-02-17T10:21:04Z</time>
      </trkpt>
      <trkpt lat="48.60305" lon="1.9553">
        <ele>111</ele>
        <time>2022-02-17T10:21:18Z</time>
      </trkpt>
      <trkpt lat="48.60322" lon="1.95546">
        <ele>110.4</ele>
        <time>2022-02-17T10:21:30Z</time>
      </trkpt>
      <trkpt lat="48.60338" lon="1.95562">
        <ele>110</ele>
        <time>2022-02-17T10:21:44Z</time>
      </trkpt>
      <trkpt lat="48.60354" lon="1.95579">
        <ele>110</ele>
        <time>2022-02-17T10:21:58Z</time>
      </trkpt>
      <trkpt lat="48.6037" lon="1.95593">
        <ele>110</ele>
        <time>2022-02-17T10:22:12Z</time>
      </trkpt>
      <trkpt lat="48.60385" lon="1.95575">
        <ele>110</ele>
        <time>2022-02-17T10:22:30Z</time>
      </trkpt>
      <trkpt lat="48.60397" lon="1.95549">
        <ele>110</ele>
        <time>2022-02-17T10:22:46Z</time>
      </trkpt>
      <trkpt lat="48.60409" lon="1.95525">
        <ele>110</ele>
        <time>2022-02-17T10:23:00Z</time>
      </trkpt>
      <trkpt lat="48.60421" lon="1.95502">
        <ele>110</ele>
        <time>2022-02-17T10:23:14Z</time>
      </trkpt>
      <trkpt lat="48.60432" lon="1.95478">
        <ele>110</ele>
        <time>2022-02-17T10:23:26Z</time>
      </trkpt>
      <trkpt lat="48.60443" lon="1.95455">
        <ele>110</ele>
        <time>2022-02-17T10:23:38Z</time>
      </trkpt>
      <trkpt lat="48.60455" lon="1.95432">
        <ele>110.3</ele>
        <time>2022-02-17T10:23:52Z</time>
      </trkpt>
      <trkpt lat="48.60468" lon="1.95409">
        <ele>110.2</ele>
        <time>2022-02-17T10:24:08Z</time>
      </trkpt>
      <trkpt lat="48.60479" lon="1.95384">
        <ele>110.1</ele>
        <time>2022-02-17T10:24:24Z</time>
      </trkpt>
      <trkpt lat="48.60493" lon="1.95361">
        <ele>110.3</ele>
        <time>2022-02-17T10:24:40Z</time>
      </trkpt>
      <trkpt lat="48.60503" lon="1.95336">
        <ele>110</ele>
        <time>2022-02-17T10:24:52Z</time>
      </trkpt>
      <trkpt lat="48.60513" lon="1.95309">
        <ele>110.9</ele>
        <time>2022-02-17T10:25:04Z</time>
      </trkpt>
      <trkpt lat="48.60525" lon="1.95288">
        <ele>111</ele>
        <time>2022-02-17T10:25:18Z</time>
      </trkpt>
      <trkpt lat="48.60536" lon="1.95264">
        <ele>111</ele>
        <time>2022-02-17T10:25:34Z</time>
      </trkpt>
      <trkpt lat="48.60549" lon="1.95242">
        <ele>111</ele>
        <time>2022-02-17T10:25:50Z</time>
      </trkpt>
      <trkpt lat="48.60561" lon="1.95221">
        <ele>111</ele>
        <time>2022-02-17T10:26:02Z</time>
      </trkpt>
      <trkpt lat="48.6057" lon="1.95195">
        <ele>111</ele>
        <time>2022-02-17T10:26:14Z</time>
      </trkpt>
      <trkpt lat="48.60572" lon="1.95167">
        <ele>111</ele>
        <time>2022-02-17T10:26:44Z</time>
      </trkpt>
      <trkpt lat="48.60556" lon="1.95151">
        <ele>111</ele>
        <time>2022-02-17T10:27:00Z</time>
      </trkpt>
      <trkpt lat="48.60544" lon="1.95128">
        <ele>111.4</ele>
        <time>2022-02-17T10:27:16Z</time>
      </trkpt>
      <trkpt lat="48.60537" lon="1.95102">
        <ele>111.7</ele>
        <time>2022-02-17T10:27:30Z</time>
      </trkpt>
      <trkpt lat="48.60524" lon="1.95079">
        <ele>112</ele>
        <time>2022-02-17T10:27:42Z</time>
      </trkpt>
      <trkpt lat="48.60508" lon="1.95064">
        <ele>112</ele>
        <time>2022-02-17T10:27:58Z</time>
      </trkpt>
      <trkpt lat="48.60516" lon="1.95038">
        <ele>112</ele>
        <time>2022-02-17T10:28:28Z</time>
      </trkpt>
      <trkpt lat="48.60532" lon="1.95025">
        <ele>112</ele>
        <time>2022-02-17T10:28:44Z</time>
      </trkpt>
      <trkpt lat="48.6055" lon="1.95015">
        <ele>112</ele>
        <time>2022-02-17T10:29:00Z</time>
      </trkpt>
      <trkpt lat="48.60567" lon="1.95001">
        <ele>112</ele>
        <time>2022-02-17T10:29:16Z</time>
      </trkpt>
      <trkpt lat="48.60585" lon="1.94995">
        <ele>112</ele>
        <time>2022-02-17T10:29:48Z</time>
      </trkpt>
      <trkpt lat="48.60604" lon="1.94987">
        <ele>111.6</ele>
        <time>2022-02-17T10:30:10Z</time>
      </trkpt>
      <trkpt lat="48.60624" lon="1.94979">
        <ele>111.4</ele>
        <time>2022-02-17T10:30:26Z</time>
      </trkpt>
      <trkpt lat="48.60642" lon="1.94968">
        <ele>111</ele>
        <time>2022-02-17T10:30:40Z</time>
      </trkpt>
      <trkpt lat="48.6066" lon="1.94974">
        <ele>111</ele>
        <time>2022-02-17T10:30:58Z</time>
      </trkpt>
    </trkseg>
  </trk>
</gpx>